createdAt,value
2019-01-12T00:00:01.331Z,7.47
2019-01-12T00:00:43.415Z,7.15
2019-01-12T00:01:17.932Z,7.30
2019-01-12T00:01:55.360Z,6.72
2019-01-12T00:02:29.925Z,7.15
2019-01-12T00:03:04.764Z,5.55
2019-01-12T00:03:39.944Z,6.37
2019-01-12T00:04:14.505Z,6.70
2019-01-12T00:04:48.996Z,6.03
2019-01-12T00:05:23.495Z,8.00
2019-01-12T00:05:58.071Z,8.38
2019-01-12T00:06:32.577Z,6.85
2019-01-12T00:07:07.065Z,7.87
2019-01-12T00:07:41.567Z,6.42
2019-01-12T00:08:16.085Z,7.35
2019-01-12T00:08:50.581Z,6.60
2019-01-12T00:09:25.082Z,7.22
2019-01-12T00:09:59.571Z,6.12
2019-01-12T00:10:34.317Z,6.42
2019-01-12T00:11:08.878Z,5.70
2019-01-12T00:11:43.377Z,6.08
2019-01-12T00:12:17.955Z,5.55
2019-01-12T00:12:52.515Z,5.60
2019-01-12T00:13:27.008Z,5.40
2019-01-12T00:14:01.514Z,6.15
2019-01-12T00:14:36.007Z,6.58
2019-01-12T00:15:10.774Z,8.28
2019-01-12T00:15:45.278Z,6.78
2019-01-12T00:16:21.425Z,6.70
2019-01-12T00:16:56.048Z,6.65
2019-01-12T00:17:30.653Z,6.53
2019-01-12T00:18:05.453Z,6.65
2019-01-12T00:18:39.940Z,6.58
2019-01-12T00:19:14.541Z,6.05
2019-01-12T00:19:49.108Z,6.60
2019-01-12T00:20:23.609Z,7.60
2019-01-12T00:20:58.167Z,6.15
2019-01-12T00:21:32.685Z,7.65
2019-01-12T00:22:07.279Z,6.50
2019-01-12T00:22:41.904Z,5.60
2019-01-12T00:23:16.396Z,6.35
2019-01-12T00:23:50.954Z,6.12
2019-01-12T00:24:31.464Z,5.72
2019-01-12T00:25:02.022Z,6.90
2019-01-12T00:25:36.526Z,6.95
2019-01-12T00:26:11.009Z,6.67
2019-01-12T00:26:45.568Z,6.42
2019-01-12T00:27:20.059Z,7.08
2019-01-12T00:27:54.620Z,5.85
2019-01-12T00:28:29.136Z,7.97
2019-01-12T00:29:03.764Z,6.40
2019-01-12T00:29:38.269Z,6.80
2019-01-12T00:30:14.410Z,7.30
2019-01-12T00:30:48.892Z,7.70
2019-01-12T00:31:23.388Z,8.48
2019-01-12T00:31:57.893Z,9.73
2019-01-12T00:32:33.102Z,6.75
2019-01-12T00:33:07.667Z,5.70
2019-01-12T00:33:42.168Z,5.80
2019-01-12T00:34:16.796Z,6.37
2019-01-12T00:34:51.312Z,6.50
2019-01-12T00:35:25.900Z,5.92
2019-01-12T00:36:00.514Z,6.53
2019-01-12T00:36:35.044Z,6.78
2019-01-12T00:37:09.600Z,4.78
2019-01-12T00:37:44.416Z,6.17
2019-01-12T00:38:18.922Z,6.33
2019-01-12T00:38:53.451Z,5.75
2019-01-12T00:39:28.017Z,5.97
2019-01-12T00:40:02.670Z,5.60
2019-01-12T00:40:37.146Z,6.90
2019-01-12T00:41:11.693Z,6.37
2019-01-12T00:41:46.257Z,6.70
2019-01-12T00:42:20.846Z,6.70
2019-01-12T00:42:55.339Z,6.95
2019-01-12T00:43:29.886Z,5.78
2019-01-12T00:44:04.882Z,5.70
2019-01-12T00:44:39.471Z,5.47
2019-01-12T00:45:14.460Z,5.62
2019-01-12T00:45:48.965Z,5.75
2019-01-12T00:46:42.877Z,5.40
2019-01-12T00:47:17.368Z,6.10
2019-01-12T00:47:51.912Z,7.00
2019-01-12T00:48:26.409Z,5.17
2019-01-12T00:49:00.976Z,5.80
2019-01-12T00:49:35.569Z,5.60
2019-01-12T00:50:16.101Z,6.17
2019-01-12T00:50:50.596Z,5.45
2019-01-12T00:51:44.516Z,5.95
2019-01-12T00:52:19.101Z,6.00
2019-01-12T00:52:54.098Z,5.95
2019-01-12T00:53:28.688Z,5.33
2019-01-12T00:54:03.221Z,5.75
2019-01-12T00:54:38.571Z,6.65
2019-01-12T00:55:16.316Z,6.80
2019-01-12T00:55:50.869Z,5.40
2019-01-12T00:56:25.412Z,5.95
2019-01-12T00:56:59.981Z,6.05
2019-01-12T00:57:34.491Z,6.60
2019-01-12T00:58:11.680Z,7.70
2019-01-12T00:58:46.291Z,6.60
2019-01-12T00:59:20.936Z,7.15
2019-01-12T00:59:55.540Z,5.83
2019-01-12T01:00:30.333Z,6.92
2019-01-12T01:01:05.192Z,4.72
2019-01-12T01:01:39.677Z,5.80
2019-01-12T01:02:14.175Z,5.42
2019-01-12T01:02:48.849Z,5.50
2019-01-12T01:03:23.341Z,5.60
2019-01-12T01:03:57.974Z,4.87
2019-01-12T01:04:32.513Z,4.60
2019-01-12T01:05:08.361Z,6.00
2019-01-12T01:05:42.906Z,5.67
2019-01-12T01:06:17.513Z,5.30
2019-01-12T01:06:52.040Z,5.45
2019-01-12T01:07:26.609Z,6.83
2019-01-12T01:08:01.200Z,5.37
2019-01-12T01:08:35.694Z,5.47
2019-01-12T01:09:10.203Z,4.42
2019-01-12T01:09:51.373Z,5.55
2019-01-12T01:10:22.266Z,5.90
2019-01-12T01:10:56.781Z,6.70
2019-01-12T01:11:31.284Z,5.55
2019-01-12T01:12:05.797Z,5.72
2019-01-12T01:12:40.302Z,5.95
2019-01-12T01:13:14.905Z,5.12
2019-01-12T01:13:49.645Z,5.97
2019-01-12T01:14:24.253Z,5.60
2019-01-12T01:14:58.849Z,6.70
2019-01-12T01:15:33.402Z,5.20
2019-01-12T01:16:07.890Z,5.42
2019-01-12T01:16:42.380Z,5.22
2019-01-12T01:17:16.973Z,5.12
2019-01-12T01:17:51.533Z,5.67
2019-01-12T01:18:26.094Z,5.30
2019-01-12T01:19:00.651Z,5.35
2019-01-12T01:19:35.200Z,5.15
2019-01-12T01:20:12.315Z,5.37
2019-01-12T01:20:46.810Z,5.92
2019-01-12T01:21:21.318Z,5.10
2019-01-12T01:21:57.093Z,5.67
2019-01-12T01:22:31.636Z,5.03
2019-01-12T01:23:06.335Z,5.30
2019-01-12T01:23:40.895Z,5.40
2019-01-12T01:24:15.448Z,5.28
2019-01-12T01:24:50.285Z,5.50
2019-01-12T01:25:24.864Z,4.62
2019-01-12T01:25:59.380Z,5.95
2019-01-12T01:26:34.086Z,5.25
2019-01-12T01:27:08.668Z,6.60
2019-01-12T01:27:43.585Z,5.12
2019-01-12T01:28:18.212Z,5.40
2019-01-12T01:28:52.695Z,5.35
2019-01-12T01:29:27.313Z,5.22
2019-01-12T01:30:03.470Z,6.08
2019-01-12T01:30:38.075Z,5.37
2019-01-12T01:31:12.564Z,5.22
2019-01-12T01:31:47.192Z,5.50
2019-01-12T01:32:21.720Z,5.15
2019-01-12T01:32:56.265Z,4.92
2019-01-12T01:33:30.755Z,4.25
2019-01-12T01:34:05.592Z,4.58
2019-01-12T01:34:40.119Z,4.90
2019-01-12T01:35:14.704Z,6.65
2019-01-12T01:35:49.230Z,5.30
2019-01-12T01:36:23.853Z,6.33
2019-01-12T01:36:58.336Z,5.28
2019-01-12T01:37:32.901Z,4.20
2019-01-12T01:38:07.680Z,4.35
2019-01-12T01:38:42.224Z,6.20
2019-01-12T01:39:16.734Z,4.60
2019-01-12T01:39:51.228Z,5.58
2019-01-12T01:40:25.754Z,5.22
2019-01-12T01:41:00.246Z,4.90
2019-01-12T01:41:34.738Z,5.05
2019-01-12T01:42:09.236Z,5.12
2019-01-12T01:42:43.821Z,5.55
2019-01-12T01:43:18.312Z,5.60
2019-01-12T01:43:52.809Z,4.70
2019-01-12T01:44:27.317Z,5.70
2019-01-12T01:45:01.908Z,5.28
2019-01-12T01:45:36.473Z,5.42
2019-01-12T01:46:10.988Z,5.00
2019-01-12T01:46:45.479Z,4.80
2019-01-12T01:47:20.101Z,6.30
2019-01-12T01:47:54.674Z,5.67
2019-01-12T01:48:29.165Z,5.50
2019-01-12T01:49:03.708Z,4.85
2019-01-12T01:49:38.254Z,5.08
2019-01-12T01:50:14.406Z,3.80
2019-01-12T01:50:48.896Z,4.90
2019-01-12T01:51:23.467Z,4.90
2019-01-12T01:51:57.994Z,4.90
2019-01-12T01:52:32.479Z,5.87
2019-01-12T01:53:06.984Z,4.97
2019-01-12T01:53:41.512Z,5.53
2019-01-12T01:54:15.996Z,5.05
2019-01-12T01:54:52.953Z,6.22
2019-01-12T01:55:26.682Z,4.87
2019-01-12T01:56:01.173Z,5.10
2019-01-12T01:56:54.996Z,5.30
2019-01-12T01:57:29.528Z,4.17
2019-01-12T01:58:04.016Z,4.67
2019-01-12T01:58:38.576Z,4.60
2019-01-12T01:59:13.059Z,5.35
2019-01-12T01:59:47.558Z,4.37
2019-01-12T02:00:22.066Z,4.90
2019-01-12T02:00:56.626Z,5.25
2019-01-12T02:01:31.397Z,5.10
2019-01-12T02:02:05.897Z,5.72
2019-01-12T02:02:40.393Z,5.40
2019-01-12T02:03:15.051Z,5.20
2019-01-12T02:03:49.551Z,4.58
2019-01-12T02:04:24.105Z,5.60
2019-01-12T02:04:58.671Z,5.17
2019-01-12T02:05:33.248Z,5.15
2019-01-12T02:06:07.753Z,5.40
2019-01-12T02:06:42.359Z,4.78
2019-01-12T02:07:16.874Z,4.92
2019-01-12T02:07:51.447Z,4.25
2019-01-12T02:08:25.932Z,5.15
2019-01-12T02:09:00.572Z,5.03
2019-01-12T02:09:36.317Z,5.25
2019-01-12T02:10:17.292Z,5.60
2019-01-12T02:10:51.806Z,4.37
2019-01-12T02:11:26.313Z,4.50
2019-01-12T02:12:00.860Z,5.03
2019-01-12T02:12:35.355Z,4.55
2019-01-12T02:13:09.849Z,5.10
2019-01-12T02:13:44.429Z,4.53
2019-01-12T02:14:18.917Z,4.72
2019-01-12T02:14:53.411Z,4.95
2019-01-12T02:15:47.327Z,5.25
2019-01-12T02:16:21.819Z,4.75
2019-01-12T02:16:56.313Z,3.65
2019-01-12T02:17:30.878Z,5.03
2019-01-12T02:18:05.539Z,4.95
2019-01-12T02:18:40.067Z,5.08
2019-01-12T02:19:14.637Z,4.25
2019-01-12T02:19:49.194Z,5.03
2019-01-12T02:20:23.691Z,5.75
2019-01-12T02:20:58.319Z,4.58
2019-01-12T02:21:32.878Z,4.10
2019-01-12T02:22:07.408Z,4.80
2019-01-12T02:22:42.308Z,3.65
2019-01-12T02:23:16.869Z,4.45
2019-01-12T02:23:51.457Z,4.30
2019-01-12T02:24:26.018Z,4.30
2019-01-12T02:25:00.620Z,5.25
2019-01-12T02:25:35.142Z,4.83
2019-01-12T02:26:09.703Z,4.42
2019-01-12T02:26:44.192Z,4.17
2019-01-12T02:27:18.709Z,5.45
2019-01-12T02:27:53.232Z,4.30
2019-01-12T02:28:27.734Z,4.90
2019-01-12T02:29:02.332Z,4.62
2019-01-12T02:29:36.828Z,5.10
2019-01-12T02:30:14.840Z,3.85
2019-01-12T02:30:49.736Z,4.20
2019-01-12T02:31:24.226Z,5.17
2019-01-12T02:31:58.722Z,3.50
2019-01-12T02:32:33.284Z,4.95
2019-01-12T02:33:07.807Z,5.03
2019-01-12T02:33:42.313Z,5.12
2019-01-12T02:34:16.918Z,3.85
2019-01-12T02:34:52.517Z,4.22
2019-01-12T02:35:27.043Z,5.12
2019-01-12T02:36:01.622Z,4.75
2019-01-12T02:36:36.164Z,4.10
2019-01-12T02:37:10.686Z,5.37
2019-01-12T02:37:45.242Z,4.83
2019-01-12T02:38:19.820Z,4.60
2019-01-12T02:38:54.387Z,5.20
2019-01-12T02:39:28.877Z,3.50
2019-01-12T02:40:04.457Z,4.42
2019-01-12T02:40:38.940Z,4.10
2019-01-12T02:41:13.460Z,5.72
2019-01-12T02:41:47.953Z,4.87
2019-01-12T02:42:22.781Z,4.83
2019-01-12T02:42:57.293Z,4.80
2019-01-12T02:43:31.776Z,4.15
2019-01-12T02:44:06.260Z,5.10
2019-01-12T02:44:40.754Z,4.25
2019-01-12T02:45:15.605Z,4.97
2019-01-12T02:45:50.178Z,4.67
2019-01-12T02:46:24.785Z,4.70
2019-01-12T02:46:59.275Z,4.95
2019-01-12T02:47:33.818Z,4.20
2019-01-12T02:48:08.382Z,3.62
2019-01-12T02:48:42.908Z,4.37
2019-01-12T02:49:17.427Z,4.83
2019-01-12T02:49:51.913Z,4.60
2019-01-12T02:50:26.461Z,4.60
2019-01-12T02:51:01.032Z,4.20
2019-01-12T02:51:35.583Z,4.25
2019-01-12T02:52:10.173Z,5.25
2019-01-12T02:53:04.076Z,4.60
2019-01-12T02:53:38.639Z,4.40
2019-01-12T02:54:13.164Z,5.17
2019-01-12T02:54:47.667Z,4.80
2019-01-12T02:55:22.161Z,4.47
2019-01-12T02:55:56.738Z,4.72
2019-01-12T02:56:31.225Z,4.55
2019-01-12T02:57:05.810Z,4.50
2019-01-12T02:57:40.553Z,4.35
2019-01-12T02:58:15.096Z,4.03
2019-01-12T02:58:49.599Z,4.90
2019-01-12T02:59:24.097Z,4.62
2019-01-12T02:59:58.586Z,4.60
2019-01-12T03:00:33.129Z,4.80
2019-01-12T03:01:07.638Z,5.17
2019-01-12T03:01:42.126Z,3.95
2019-01-12T03:02:16.701Z,5.30
2019-01-12T03:02:52.548Z,5.20
2019-01-12T03:03:27.037Z,3.67
2019-01-12T03:04:01.569Z,4.65
2019-01-12T03:04:36.063Z,4.42
2019-01-12T03:05:10.792Z,4.05
2019-01-12T03:05:45.276Z,4.47
2019-01-12T03:06:19.860Z,4.05
2019-01-12T03:06:54.520Z,5.62
2019-01-12T03:07:29.111Z,5.55
2019-01-12T03:08:03.669Z,4.42
2019-01-12T03:08:38.235Z,4.20
2019-01-12T03:09:12.777Z,4.45
2019-01-12T03:09:47.282Z,4.58
2019-01-12T03:10:21.767Z,3.87
2019-01-12T03:10:56.294Z,3.92
2019-01-12T03:11:31.074Z,4.05
2019-01-12T03:12:05.639Z,4.70
2019-01-12T03:12:40.125Z,3.98
2019-01-12T03:13:14.617Z,4.70
2019-01-12T03:13:49.132Z,5.55
2019-01-12T03:14:23.702Z,5.50
2019-01-12T03:14:58.264Z,4.42
2019-01-12T03:15:32.893Z,5.10
2019-01-12T03:16:07.452Z,4.45
2019-01-12T03:16:41.972Z,4.58
2019-01-12T03:17:16.528Z,4.10
2019-01-12T03:17:51.173Z,5.47
2019-01-12T03:18:25.682Z,4.72
2019-01-12T03:19:00.243Z,5.12
2019-01-12T03:19:34.728Z,4.30
2019-01-12T03:20:12.667Z,4.33
2019-01-12T03:20:47.248Z,4.60
2019-01-12T03:21:21.760Z,4.17
2019-01-12T03:21:56.281Z,4.22
2019-01-12T03:22:30.766Z,5.47
2019-01-12T03:23:05.273Z,4.33
2019-01-12T03:23:39.824Z,5.95
2019-01-12T03:24:14.314Z,4.60
2019-01-12T03:24:48.806Z,4.08
2019-01-12T03:25:23.303Z,4.35
2019-01-12T03:25:57.793Z,4.12
2019-01-12T03:26:32.300Z,4.92
2019-01-12T03:27:06.979Z,4.95
2019-01-12T03:27:41.460Z,4.12
2019-01-12T03:28:15.957Z,4.25
2019-01-12T03:28:50.473Z,3.98
2019-01-12T03:29:24.985Z,3.98
2019-01-12T03:29:59.529Z,4.70
2019-01-12T03:30:36.285Z,4.97
2019-01-12T03:31:10.209Z,4.08
2019-01-12T03:31:44.778Z,4.37
2019-01-12T03:32:19.371Z,4.25
2019-01-12T03:32:53.944Z,4.03
2019-01-12T03:33:28.529Z,4.92
2019-01-12T03:34:03.155Z,4.87
2019-01-12T03:34:37.681Z,4.17
2019-01-12T03:35:12.688Z,3.80
2019-01-12T03:35:47.264Z,4.58
2019-01-12T03:36:21.776Z,3.95
2019-01-12T03:36:56.269Z,4.00
2019-01-12T03:37:30.758Z,5.30
2019-01-12T03:38:05.249Z,3.92
2019-01-12T03:38:39.792Z,4.15
2019-01-12T03:39:14.283Z,5.17
2019-01-12T03:39:48.776Z,3.72
2019-01-12T03:40:23.271Z,4.35
2019-01-12T03:40:57.755Z,3.52
2019-01-12T03:41:32.264Z,4.05
2019-01-12T03:42:06.751Z,3.80
2019-01-12T03:42:41.233Z,4.12
2019-01-12T03:43:17.006Z,3.20
2019-01-12T03:43:52.263Z,4.60
2019-01-12T03:44:26.758Z,5.33
2019-01-12T03:45:01.354Z,3.67
2019-01-12T03:45:37.449Z,4.25
2019-01-12T03:46:11.998Z,4.35
2019-01-12T03:46:46.510Z,4.50
2019-01-12T03:47:20.993Z,4.10
2019-01-12T03:47:55.594Z,4.35
2019-01-12T03:48:30.097Z,4.40
2019-01-12T03:49:04.872Z,4.30
2019-01-12T03:49:39.434Z,4.30
2019-01-12T03:50:15.379Z,4.00
2019-01-12T03:50:49.940Z,3.60
2019-01-12T03:51:24.783Z,4.22
2019-01-12T03:51:59.342Z,5.10
2019-01-12T03:52:33.883Z,4.15
2019-01-12T03:53:08.373Z,3.80
2019-01-12T03:53:42.871Z,4.42
2019-01-12T03:54:17.429Z,3.85
2019-01-12T03:54:52.064Z,5.50
2019-01-12T03:55:26.631Z,3.95
2019-01-12T03:56:01.194Z,4.33
2019-01-12T03:56:35.848Z,4.35
2019-01-12T03:57:10.481Z,4.50
2019-01-12T03:57:45.139Z,4.42
2019-01-12T03:58:19.762Z,4.17
2019-01-12T03:58:54.316Z,3.85
2019-01-12T03:59:29.278Z,4.70
2019-01-12T04:00:07.149Z,4.40
2019-01-12T04:00:41.714Z,3.85
2019-01-12T04:01:16.220Z,3.98
2019-01-12T04:01:50.884Z,3.98
2019-01-12T04:02:25.385Z,4.62
2019-01-12T04:02:59.870Z,5.03
2019-01-12T04:03:34.379Z,5.00
2019-01-12T04:04:08.939Z,4.62
2019-01-12T04:04:43.425Z,4.15
2019-01-12T04:05:18.944Z,3.20
2019-01-12T04:05:53.476Z,4.47
2019-01-12T04:06:27.971Z,3.90
2019-01-12T04:07:02.566Z,4.53
2019-01-12T04:07:37.061Z,3.65
2019-01-12T04:08:11.546Z,4.55
2019-01-12T04:08:46.057Z,4.87
2019-01-12T04:09:20.553Z,5.50
2019-01-12T04:09:55.238Z,4.30
2019-01-12T04:10:29.748Z,4.60
2019-01-12T04:11:04.299Z,3.20
2019-01-12T04:11:38.798Z,4.25
2019-01-12T04:12:13.319Z,4.33
2019-01-12T04:12:47.917Z,4.00
2019-01-12T04:13:22.466Z,4.00
2019-01-12T04:13:56.947Z,4.60
2019-01-12T04:14:31.464Z,4.10
2019-01-12T04:15:08.783Z,4.40
2019-01-12T04:15:43.279Z,4.03
2019-01-12T04:16:17.840Z,3.80
2019-01-12T04:16:52.355Z,4.62
2019-01-12T04:17:26.865Z,4.55
2019-01-12T04:18:01.479Z,4.08
2019-01-12T04:18:37.745Z,4.60
2019-01-12T04:19:15.043Z,3.33
2019-01-12T04:19:49.793Z,3.83
2019-01-12T04:20:24.293Z,4.28
2019-01-12T04:20:58.781Z,3.65
2019-01-12T04:21:33.266Z,4.15
2019-01-12T04:22:07.849Z,4.15
2019-01-12T04:22:42.472Z,3.98
2019-01-12T04:23:17.098Z,4.40
2019-01-12T04:23:51.692Z,3.40
2019-01-12T04:24:26.258Z,4.45
2019-01-12T04:25:00.773Z,3.30
2019-01-12T04:25:35.279Z,3.33
2019-01-12T04:26:09.755Z,4.20
2019-01-12T04:26:44.252Z,3.87
2019-01-12T04:27:18.771Z,3.65
2019-01-12T04:27:53.335Z,4.15
2019-01-12T04:28:27.832Z,3.37
2019-01-12T04:29:02.394Z,4.22
2019-01-12T04:29:36.890Z,3.80
2019-01-12T04:30:16.283Z,3.05
2019-01-12T04:30:50.896Z,4.28
2019-01-12T04:31:25.524Z,4.37
2019-01-12T04:32:00.042Z,3.67
2019-01-12T04:32:34.549Z,4.17
2019-01-12T04:33:09.089Z,3.77
2019-01-12T04:33:43.621Z,4.83
2019-01-12T04:34:18.169Z,3.90
2019-01-12T04:34:52.661Z,3.52
2019-01-12T04:35:27.235Z,3.95
2019-01-12T04:36:01.735Z,4.45
2019-01-12T04:36:36.298Z,3.55
2019-01-12T04:37:10.807Z,3.45
2019-01-12T04:37:45.320Z,3.15
2019-01-12T04:38:19.876Z,3.22
2019-01-12T04:38:54.438Z,3.83
2019-01-12T04:39:28.933Z,3.30
2019-01-12T04:40:04.769Z,3.87
2019-01-12T04:40:39.260Z,3.85
2019-01-12T04:41:13.758Z,3.80
2019-01-12T04:41:48.323Z,4.65
2019-01-12T04:42:22.827Z,4.30
2019-01-12T04:42:57.317Z,4.08
2019-01-12T04:43:31.874Z,4.40
2019-01-12T04:44:06.369Z,3.85
2019-01-12T04:44:40.865Z,4.55
2019-01-12T04:45:16.701Z,3.75
2019-01-12T04:45:51.197Z,3.70
2019-01-12T04:46:25.754Z,3.83
2019-01-12T04:47:00.249Z,3.80
2019-01-12T04:47:34.782Z,3.22
2019-01-12T04:48:09.277Z,3.98
2019-01-12T04:48:43.834Z,2.55
2019-01-12T04:49:18.321Z,4.25
2019-01-12T04:49:52.813Z,3.52
2019-01-12T04:50:27.319Z,4.67
2019-01-12T04:51:01.923Z,3.75
2019-01-12T04:51:36.417Z,3.80
2019-01-12T04:52:10.916Z,3.60
2019-01-12T04:52:46.033Z,3.12
2019-01-12T04:53:20.572Z,3.92
2019-01-12T04:53:55.071Z,3.75
2019-01-12T04:54:30.956Z,4.45
2019-01-12T04:55:06.581Z,3.65
2019-01-12T04:55:41.811Z,3.58
2019-01-12T04:56:16.692Z,3.05
2019-01-12T04:56:51.234Z,3.25
2019-01-12T04:57:25.793Z,3.67
2019-01-12T04:58:00.296Z,3.50
2019-01-12T04:58:34.779Z,3.10
2019-01-12T04:59:09.264Z,3.58
2019-01-12T04:59:43.756Z,3.98
2019-01-12T05:00:18.335Z,3.70
2019-01-12T05:00:52.939Z,3.17
2019-01-12T05:01:27.500Z,3.00
2019-01-12T05:02:02.008Z,3.05
2019-01-12T05:02:36.529Z,3.00
2019-01-12T05:03:11.078Z,4.17
2019-01-12T05:03:45.647Z,3.65
2019-01-12T05:04:21.850Z,3.45
2019-01-12T05:04:56.384Z,3.05
2019-01-12T05:05:30.960Z,3.30
2019-01-12T05:06:05.778Z,3.80
2019-01-12T05:06:40.347Z,3.42
2019-01-12T05:07:14.929Z,3.62
2019-01-12T05:07:49.558Z,3.83
2019-01-12T05:08:24.119Z,3.67
2019-01-12T05:08:58.622Z,3.00
2019-01-12T05:09:33.134Z,3.52
2019-01-12T05:10:10.163Z,3.87
2019-01-12T05:10:44.659Z,3.55
2019-01-12T05:11:19.224Z,4.28
2019-01-12T05:11:53.717Z,3.55
2019-01-12T05:12:29.614Z,3.17
2019-01-12T05:13:04.117Z,3.15
2019-01-12T05:13:38.696Z,3.95
2019-01-12T05:14:13.199Z,3.67
2019-01-12T05:14:47.752Z,3.98
2019-01-12T05:15:22.240Z,4.40
2019-01-12T05:15:56.812Z,4.85
2019-01-12T05:16:31.363Z,4.03
2019-01-12T05:17:05.871Z,4.70
2019-01-12T05:17:40.471Z,3.92
2019-01-12T05:18:15.024Z,3.47
2019-01-12T05:18:51.282Z,3.80
2019-01-12T05:19:25.790Z,3.52
2019-01-12T05:20:00.594Z,4.33
2019-01-12T05:20:35.157Z,3.98
2019-01-12T05:21:09.660Z,4.25
2019-01-12T05:21:44.225Z,3.70
2019-01-12T05:22:18.836Z,3.25
2019-01-12T05:22:53.345Z,2.83
2019-01-12T05:23:27.868Z,3.22
2019-01-12T05:24:02.363Z,3.90
2019-01-12T05:24:36.931Z,4.20
2019-01-12T05:25:11.577Z,4.33
2019-01-12T05:25:49.234Z,4.20
2019-01-12T05:26:22.394Z,4.58
2019-01-12T05:26:57.065Z,3.00
2019-01-12T05:27:31.562Z,4.08
2019-01-12T05:28:06.151Z,3.90
2019-01-12T05:28:40.645Z,3.75
2019-01-12T05:29:15.162Z,3.40
2019-01-12T05:29:49.650Z,3.55
2019-01-12T05:30:24.146Z,3.15
2019-01-12T05:30:58.629Z,3.55
2019-01-12T05:31:33.114Z,3.50
2019-01-12T05:32:07.615Z,4.17
2019-01-12T05:32:42.137Z,3.33
2019-01-12T05:33:16.718Z,3.30
2019-01-12T05:33:51.263Z,3.50
2019-01-12T05:34:25.950Z,3.95
2019-01-12T05:35:00.438Z,4.20
2019-01-12T05:35:36.026Z,3.87
2019-01-12T05:36:12.211Z,3.42
2019-01-12T05:36:46.947Z,4.22
2019-01-12T05:37:21.520Z,3.37
2019-01-12T05:37:56.054Z,4.37
2019-01-12T05:38:30.618Z,4.10
2019-01-12T05:39:07.143Z,3.60
2019-01-12T05:39:41.639Z,4.08
2019-01-12T05:40:16.476Z,3.15
2019-01-12T05:40:51.043Z,3.60
2019-01-12T05:41:25.538Z,4.20
2019-01-12T05:42:00.125Z,3.72
2019-01-12T05:42:34.691Z,3.90
2019-01-12T05:43:09.249Z,3.42
2019-01-12T05:43:43.812Z,3.92
2019-01-12T05:44:18.306Z,3.40
2019-01-12T05:44:53.922Z,3.50
2019-01-12T05:45:28.549Z,2.98
2019-01-12T05:46:03.036Z,3.58
2019-01-12T05:46:37.548Z,3.20
2019-01-12T05:47:13.074Z,3.85
2019-01-12T05:47:47.726Z,4.10
2019-01-12T05:48:22.295Z,3.50
2019-01-12T05:48:56.793Z,2.80
2019-01-12T05:49:31.398Z,2.92
2019-01-12T05:50:08.569Z,3.27
2019-01-12T05:50:43.068Z,3.30
2019-01-12T05:51:17.568Z,3.37
2019-01-12T05:51:52.398Z,3.70
2019-01-12T05:52:27.088Z,4.30
2019-01-12T05:53:01.641Z,2.90
2019-01-12T05:53:36.273Z,4.10
2019-01-12T05:54:10.774Z,3.67
2019-01-12T05:54:45.273Z,3.45
2019-01-12T05:55:19.942Z,4.92
2019-01-12T05:55:57.901Z,3.92
2019-01-12T05:56:30.963Z,3.75
2019-01-12T05:57:05.522Z,3.95
2019-01-12T05:57:40.188Z,3.27
2019-01-12T05:58:14.764Z,3.70
2019-01-12T05:58:49.289Z,3.37
2019-01-12T05:59:23.841Z,3.75
2019-01-12T05:59:58.474Z,4.47
2019-01-12T06:00:32.977Z,4.30
2019-01-12T06:01:08.901Z,3.60
2019-01-12T06:01:43.629Z,3.42
2019-01-12T06:02:18.137Z,4.28
2019-01-12T06:02:53.074Z,4.17
2019-01-12T06:03:27.579Z,4.00
2019-01-12T06:04:02.074Z,4.25
2019-01-12T06:04:36.697Z,4.10
2019-01-12T06:05:11.412Z,4.70
2019-01-12T06:05:45.913Z,4.87
2019-01-12T06:06:20.471Z,3.70
2019-01-12T06:06:54.964Z,4.10
2019-01-12T06:07:29.501Z,3.72
2019-01-12T06:08:04.114Z,4.75
2019-01-12T06:08:38.641Z,4.75
2019-01-12T06:09:13.132Z,3.95
2019-01-12T06:09:48.088Z,4.35
2019-01-12T06:10:22.589Z,4.10
2019-01-12T06:10:57.148Z,4.05
2019-01-12T06:11:31.659Z,4.12
2019-01-12T06:12:06.136Z,4.65
2019-01-12T06:12:40.631Z,3.35
2019-01-12T06:13:15.152Z,4.42
2019-01-12T06:13:50.013Z,5.15
2019-01-12T06:14:24.517Z,4.25
2019-01-12T06:14:59.000Z,3.27
2019-01-12T06:15:33.493Z,3.55
2019-01-12T06:16:07.984Z,3.90
2019-01-12T06:16:42.479Z,3.72
2019-01-12T06:17:16.961Z,4.40
2019-01-12T06:17:51.453Z,4.05
2019-01-12T06:18:25.971Z,3.67
2019-01-12T06:19:00.494Z,4.42
2019-01-12T06:19:34.991Z,4.33
2019-01-12T06:20:14.229Z,4.65
2019-01-12T06:20:48.712Z,3.85
2019-01-12T06:21:23.254Z,4.40
2019-01-12T06:21:57.732Z,4.55
2019-01-12T06:22:32.232Z,4.45
2019-01-12T06:23:06.750Z,4.17
2019-01-12T06:23:41.302Z,4.67
2019-01-12T06:24:15.796Z,3.58
2019-01-12T06:24:50.292Z,4.12
2019-01-12T06:25:24.798Z,3.62
2019-01-12T06:26:03.824Z,4.25
2019-01-12T06:26:35.580Z,4.40
2019-01-12T06:27:10.070Z,3.45
2019-01-12T06:27:44.629Z,4.00
2019-01-12T06:28:19.144Z,4.65
2019-01-12T06:28:53.664Z,4.03
2019-01-12T06:29:28.148Z,3.90
2019-01-12T06:30:02.715Z,4.83
2019-01-12T06:30:37.253Z,3.62
2019-01-12T06:31:11.748Z,3.52
2019-01-12T06:31:46.252Z,4.22
2019-01-12T06:32:20.835Z,4.22
2019-01-12T06:32:55.325Z,4.30
2019-01-12T06:33:29.828Z,3.98
2019-01-12T06:34:04.393Z,3.22
2019-01-12T06:34:39.009Z,3.95
2019-01-12T06:35:13.776Z,4.22
2019-01-12T06:35:48.291Z,3.98
2019-01-12T06:36:22.816Z,3.75
2019-01-12T06:36:57.413Z,3.80
2019-01-12T06:37:31.994Z,4.28
2019-01-12T06:38:06.509Z,3.45
2019-01-12T06:38:41.012Z,3.90
2019-01-12T06:39:15.507Z,4.03
2019-01-12T06:39:50.091Z,4.72
2019-01-12T06:40:24.594Z,3.87
2019-01-12T06:40:59.177Z,3.90
2019-01-12T06:41:33.775Z,3.92
2019-01-12T06:42:08.347Z,4.25
2019-01-12T06:42:43.103Z,4.03
2019-01-12T06:43:17.607Z,3.70
2019-01-12T06:43:52.183Z,3.62
2019-01-12T06:44:26.749Z,4.45
2019-01-12T06:45:02.240Z,3.95
2019-01-12T06:45:36.745Z,3.70
2019-01-12T06:46:11.247Z,4.03
2019-01-12T06:46:45.847Z,3.75
2019-01-12T06:47:20.672Z,3.72
2019-01-12T06:47:55.274Z,4.20
2019-01-12T06:48:29.764Z,4.47
2019-01-12T06:49:04.904Z,3.45
2019-01-12T06:49:39.453Z,3.37
2019-01-12T06:50:16.172Z,3.22
2019-01-12T06:50:50.680Z,4.10
2019-01-12T06:51:25.165Z,4.40
2019-01-12T06:51:59.668Z,4.17
2019-01-12T06:52:34.165Z,3.92
2019-01-12T06:53:08.659Z,3.75
2019-01-12T06:53:43.180Z,4.25
2019-01-12T06:54:17.796Z,3.60
2019-01-12T06:54:52.294Z,4.25
2019-01-12T06:55:26.921Z,4.25
2019-01-12T06:56:01.433Z,3.20
2019-01-12T06:56:35.989Z,4.20
2019-01-12T06:57:10.472Z,4.47
2019-01-12T06:57:45.137Z,3.87
2019-01-12T06:58:19.713Z,3.37
2019-01-12T06:58:54.360Z,3.60
2019-01-12T06:59:28.963Z,3.70
2019-01-12T07:00:05.673Z,4.17
2019-01-12T07:00:40.216Z,4.60
2019-01-12T07:01:14.729Z,3.70
2019-01-12T07:01:49.298Z,4.78
2019-01-12T07:02:23.793Z,4.10
2019-01-12T07:02:58.312Z,3.83
2019-01-12T07:03:33.812Z,3.98
2019-01-12T07:04:08.325Z,4.28
2019-01-12T07:04:42.818Z,4.22
2019-01-12T07:05:17.389Z,3.10
2019-01-12T07:05:51.961Z,4.17
2019-01-12T07:06:26.519Z,3.83
2019-01-12T07:07:01.060Z,3.37
2019-01-12T07:07:35.596Z,3.50
2019-01-12T07:08:10.161Z,3.47
2019-01-12T07:08:44.701Z,3.40
2019-01-12T07:09:19.376Z,3.70
2019-01-12T07:09:53.877Z,4.47
2019-01-12T07:10:28.365Z,4.12
2019-01-12T07:11:02.885Z,3.87
2019-01-12T07:11:37.479Z,4.30
2019-01-12T07:12:12.021Z,4.17
2019-01-12T07:12:46.618Z,4.67
2019-01-12T07:13:21.171Z,4.15
2019-01-12T07:13:55.760Z,4.62
2019-01-12T07:14:30.341Z,4.20
2019-01-12T07:15:07.374Z,3.67
2019-01-12T07:15:41.868Z,3.50
2019-01-12T07:16:16.357Z,3.87
2019-01-12T07:16:50.852Z,3.67
2019-01-12T07:17:27.249Z,3.47
2019-01-12T07:18:08.759Z,3.95
2019-01-12T07:18:38.145Z,3.60
2019-01-12T07:19:12.730Z,3.83
2019-01-12T07:19:47.250Z,3.10
2019-01-12T07:20:41.146Z,5.42
2019-01-12T07:21:15.632Z,3.25
2019-01-12T07:21:50.108Z,4.47
2019-01-12T07:22:24.605Z,3.83
2019-01-12T07:22:59.149Z,3.12
2019-01-12T07:23:33.653Z,3.80
2019-01-12T07:24:08.162Z,4.25
2019-01-12T07:24:42.660Z,4.70
2019-01-12T07:25:17.239Z,3.90
2019-01-12T07:25:51.716Z,2.92
2019-01-12T07:26:26.212Z,3.95
2019-01-12T07:27:00.814Z,3.37
2019-01-12T07:27:35.299Z,4.22
2019-01-12T07:28:09.809Z,3.83
2019-01-12T07:28:44.365Z,3.67
2019-01-12T07:29:18.876Z,3.12
2019-01-12T07:29:53.411Z,3.87
2019-01-12T07:30:27.976Z,3.70
2019-01-12T07:31:02.465Z,4.03
2019-01-12T07:31:36.942Z,3.40
2019-01-12T07:32:11.457Z,4.75
2019-01-12T07:32:46.003Z,4.15
2019-01-12T07:33:20.518Z,3.72
2019-01-12T07:33:55.568Z,4.00
2019-01-12T07:34:30.091Z,3.60
2019-01-12T07:35:05.150Z,4.08
2019-01-12T07:35:39.715Z,3.22
2019-01-12T07:36:14.217Z,3.02
2019-01-12T07:36:48.700Z,3.42
2019-01-12T07:37:23.193Z,3.52
2019-01-12T07:37:58.636Z,3.40
2019-01-12T07:38:33.122Z,4.05
2019-01-12T07:39:07.953Z,3.72
2019-01-12T07:39:42.460Z,3.75
2019-01-12T07:40:17.146Z,3.70
2019-01-12T07:40:51.659Z,2.95
2019-01-12T07:41:26.219Z,4.40
2019-01-12T07:42:00.793Z,4.33
2019-01-12T07:42:35.290Z,3.75
2019-01-12T07:43:09.836Z,3.70
2019-01-12T07:43:44.326Z,3.60